createdAt,value
2018-10-05T00:01:14.259Z,102086.00
2018-10-05T00:03:43.050Z,102079.00
2018-10-05T00:06:11.876Z,102083.00
2018-10-05T00:08:40.687Z,102086.00
2018-10-05T00:11:09.516Z,102088.00
2018-10-05T00:13:38.361Z,102071.00
2018-10-05T00:16:07.444Z,102070.00
2018-10-05T00:18:36.356Z,102083.00
2018-10-05T00:21:05.182Z,102080.00
2018-10-05T00:23:34.365Z,102076.00
2018-10-05T00:26:03.160Z,102070.00
2018-10-05T00:28:31.959Z,102069.00
2018-10-05T00:31:00.775Z,102069.00
2018-10-05T00:33:29.587Z,102069.00
2018-10-05T00:35:58.971Z,102068.00
2018-10-05T00:38:27.816Z,102062.00
2018-10-05T00:41:01.212Z,102059.00
2018-10-05T00:43:31.522Z,102063.00
2018-10-05T00:46:00.723Z,102057.00
2018-10-05T00:48:30.022Z,102059.00
2018-10-05T00:50:58.833Z,102059.00
2018-10-05T00:53:27.760Z,102052.00
2018-10-05T00:55:56.432Z,102061.00
2018-10-05T00:58:25.268Z,102053.00
2018-10-05T01:00:54.075Z,102048.00
2018-10-05T01:03:22.865Z,102048.00
2018-10-05T01:05:51.859Z,102046.00
2018-10-05T01:08:20.642Z,102052.00
2018-10-05T01:10:49.473Z,102039.00
2018-10-05T01:13:18.285Z,102044.00
2018-10-05T01:15:47.092Z,102047.00
2018-10-05T01:18:15.906Z,102045.00
2018-10-05T01:20:44.803Z,102043.00
2018-10-05T01:23:13.725Z,102050.00
2018-10-05T01:25:42.531Z,102044.00
2018-10-05T01:28:11.448Z,102040.00
2018-10-05T01:30:40.259Z,102039.00
2018-10-05T01:33:09.194Z,102041.00
2018-10-05T01:35:38.007Z,102039.00
2018-10-05T01:38:06.791Z,102045.00
2018-10-05T01:40:35.599Z,102043.00
2018-10-05T01:43:04.411Z,102038.00
2018-10-05T01:45:33.227Z,102034.00
2018-10-05T01:48:02.015Z,102028.00
2018-10-05T01:50:31.683Z,102024.00
2018-10-05T01:53:00.492Z,102022.00
2018-10-05T01:55:29.315Z,102025.00
2018-10-05T01:57:58.119Z,102019.00
2018-10-05T02:00:27.035Z,102020.00
2018-10-05T02:02:55.888Z,102011.00
2018-10-05T02:05:24.759Z,102021.00
2018-10-05T02:07:53.578Z,102014.00
2018-10-05T02:10:22.507Z,102023.00
2018-10-05T02:12:51.480Z,102014.00
2018-10-05T02:15:20.303Z,102015.00
2018-10-05T02:17:49.118Z,102011.00
2018-10-05T02:20:17.965Z,102005.00
2018-10-05T02:22:46.773Z,102004.00
2018-10-05T02:25:15.596Z,102000.00
2018-10-05T02:27:44.407Z,101998.00
2018-10-05T02:30:13.221Z,101999.00
2018-10-05T02:32:42.060Z,101997.00
2018-10-05T02:35:11.321Z,102001.00
2018-10-05T02:37:40.115Z,101995.00
2018-10-05T02:40:09.362Z,101997.00
2018-10-05T02:42:38.239Z,102002.00
2018-10-05T02:45:08.995Z,101998.00
2018-10-05T02:47:37.794Z,102004.00
2018-10-05T02:50:07.778Z,101994.00
2018-10-05T02:52:37.048Z,101998.00
2018-10-05T02:55:05.877Z,102006.00
2018-10-05T02:57:34.910Z,102001.00
2018-10-05T03:00:03.719Z,102001.00
2018-10-05T03:02:33.719Z,101995.00
2018-10-05T03:05:02.608Z,102001.00
2018-10-05T03:07:32.114Z,101998.00
2018-10-05T03:10:01.899Z,101995.00
2018-10-05T03:12:30.689Z,101996.00
2018-10-05T03:14:59.503Z,101993.00
2018-10-05T03:17:28.308Z,101990.00
2018-10-05T03:19:57.264Z,101994.00
2018-10-05T03:22:26.051Z,101996.00
2018-10-05T03:24:54.853Z,101990.00
2018-10-05T03:27:23.702Z,101980.00
2018-10-05T03:29:52.475Z,101973.00
2018-10-05T03:32:21.260Z,101965.00
2018-10-05T03:34:50.072Z,101963.00
2018-10-05T03:37:18.877Z,101958.00
2018-10-05T03:39:47.672Z,101957.00
2018-10-05T03:42:16.798Z,101963.00
2018-10-05T03:44:45.594Z,101952.00
2018-10-05T03:47:14.381Z,101962.00
2018-10-05T03:49:43.201Z,101957.00
2018-10-05T03:52:11.993Z,101967.00
2018-10-05T03:54:41.159Z,101962.00
2018-10-05T03:57:09.991Z,101955.00
2018-10-05T03:59:38.789Z,101958.00
2018-10-05T04:02:07.741Z,101949.00
2018-10-05T04:04:36.673Z,101963.00
2018-10-05T04:07:05.467Z,101960.00
2018-10-05T04:09:34.279Z,101949.00
2018-10-05T04:12:03.092Z,101954.00
2018-10-05T04:14:31.915Z,101956.00
2018-10-05T04:17:00.713Z,101957.00
2018-10-05T04:19:29.541Z,101945.00
2018-10-05T04:21:58.333Z,101950.00
2018-10-05T04:24:27.138Z,101951.00
2018-10-05T04:26:56.331Z,101950.00
2018-10-05T04:29:25.158Z,101952.00
2018-10-05T04:31:53.976Z,101961.00
2018-10-05T04:34:22.801Z,101967.00
2018-10-05T04:36:51.611Z,101959.00
2018-10-05T04:39:20.416Z,101964.00
2018-10-05T04:41:49.246Z,101972.00
2018-10-05T04:44:18.089Z,101969.00
2018-10-05T04:46:46.893Z,101969.00
2018-10-05T04:49:15.810Z,101966.00
2018-10-05T04:51:44.667Z,101969.00
2018-10-05T04:54:13.750Z,101970.00
2018-10-05T04:56:43.275Z,101973.00
2018-10-05T04:59:12.116Z,101976.00
2018-10-05T05:01:40.919Z,101978.00
2018-10-05T05:04:09.735Z,101980.00
2018-10-05T05:06:38.596Z,101978.00
2018-10-05T05:09:08.184Z,101975.00
2018-10-05T05:11:37.393Z,101982.00
2018-10-05T05:14:06.186Z,101975.00
2018-10-05T05:16:34.998Z,101977.00
2018-10-05T05:19:04.070Z,101973.00
2018-10-05T05:21:32.879Z,101982.00
2018-10-05T05:24:01.669Z,101985.00
2018-10-05T05:26:30.461Z,101982.00
2018-10-05T05:28:59.250Z,101981.00
2018-10-05T05:31:28.053Z,101984.00
2018-10-05T05:33:57.258Z,101981.00
2018-10-05T05:36:26.050Z,101988.00
2018-10-05T05:38:54.932Z,101980.00
2018-10-05T05:41:23.775Z,101993.00
2018-10-05T05:43:52.581Z,101988.00
2018-10-05T05:46:21.467Z,101988.00
2018-10-05T05:48:50.293Z,101987.00
2018-10-05T05:51:19.154Z,101986.00
2018-10-05T05:53:47.973Z,101990.00
2018-10-05T05:56:17.114Z,101986.00
2018-10-05T05:58:46.271Z,102002.00
2018-10-05T06:01:15.328Z,101993.00
2018-10-05T06:03:44.127Z,102001.00
2018-10-05T06:06:12.958Z,101992.00
2018-10-05T06:08:41.787Z,102001.00
2018-10-05T06:11:10.634Z,102003.00
2018-10-05T06:13:39.565Z,102001.00
2018-10-05T06:16:08.504Z,102003.00
2018-10-05T06:18:37.426Z,101995.00
2018-10-05T06:21:06.456Z,102002.00
2018-10-05T06:23:35.242Z,102005.00
2018-10-05T06:26:04.116Z,102001.00
2018-10-05T06:28:32.941Z,102000.00
2018-10-05T06:31:01.976Z,102011.00
2018-10-05T06:33:30.687Z,102016.00
2018-10-05T06:35:59.478Z,102009.00
2018-10-05T06:38:28.286Z,102006.00
2018-10-05T06:40:57.215Z,101998.00
2018-10-05T06:43:26.031Z,101999.00
2018-10-05T06:45:54.874Z,102006.00
2018-10-05T06:48:23.832Z,102005.00
2018-10-05T06:50:52.665Z,102001.00
2018-10-05T06:53:21.546Z,102011.00
2018-10-05T06:55:50.317Z,102003.00
2018-10-05T06:58:19.185Z,102011.00
2018-10-05T07:00:48.302Z,102015.00
2018-10-05T07:03:17.430Z,102019.00
2018-10-05T07:05:46.255Z,102020.00
2018-10-05T07:08:15.079Z,102029.00
2018-10-05T07:10:43.933Z,102016.00
2018-10-05T07:13:12.772Z,102021.00
2018-10-05T07:15:41.642Z,102030.00
2018-10-05T07:18:10.464Z,102032.00
2018-10-05T07:20:39.281Z,102033.00
2018-10-05T07:23:08.237Z,102030.00
2018-10-05T07:25:37.285Z,102025.00
2018-10-05T07:28:06.169Z,102022.00
2018-10-05T07:30:35.090Z,102027.00
2018-10-05T07:33:03.983Z,102018.00
2018-10-05T07:35:32.781Z,102027.00
2018-10-05T07:38:01.593Z,102020.00
2018-10-05T07:40:30.413Z,102017.00
2018-10-05T07:42:59.234Z,102012.00
2018-10-05T07:45:28.047Z,102010.00
2018-10-05T07:47:57.719Z,102021.00
2018-10-05T07:50:26.529Z,102017.00
2018-10-05T07:52:55.345Z,102006.00
2018-10-05T07:55:24.268Z,102014.00
2018-10-05T07:57:53.079Z,102006.00
2018-10-05T08:00:21.921Z,102005.00
2018-10-05T08:02:51.237Z,102011.00
2018-10-05T08:05:20.063Z,102019.00
2018-10-05T08:07:48.909Z,102022.00
2018-10-05T08:10:18.018Z,102010.00
2018-10-05T08:12:46.841Z,102011.00
2018-10-05T08:15:15.630Z,102008.00
2018-10-05T08:17:44.471Z,102010.00
2018-10-05T08:20:13.282Z,102003.00
2018-10-05T08:22:42.106Z,102008.00
2018-10-05T08:25:11.550Z,102004.00
2018-10-05T08:27:40.374Z,102001.00
2018-10-05T08:30:09.860Z,102002.00
2018-10-05T08:32:39.578Z,102004.00
2018-10-05T08:35:08.638Z,102001.00
2018-10-05T08:37:37.894Z,102000.00
2018-10-05T08:40:09.759Z,101995.00
2018-10-05T08:42:38.529Z,101992.00
2018-10-05T08:45:09.069Z,101988.00
2018-10-05T08:47:37.997Z,101984.00
2018-10-05T08:50:08.133Z,101986.00
2018-10-05T08:52:36.963Z,101980.00
2018-10-05T08:55:05.971Z,101974.00
2018-10-05T08:57:34.799Z,101975.00
2018-10-05T09:00:03.663Z,101971.00
2018-10-05T09:02:32.487Z,101966.00
2018-10-05T09:05:01.868Z,101972.00
2018-10-05T09:07:30.684Z,101974.00
2018-10-05T09:09:59.554Z,101975.00
2018-10-05T09:12:28.352Z,101971.00
2018-10-05T09:14:57.167Z,101960.00
2018-10-05T09:17:26.298Z,101957.00
2018-10-05T09:19:55.163Z,101949.00
2018-10-05T09:22:24.014Z,101960.00
2018-10-05T09:24:52.869Z,101966.00
2018-10-05T09:27:21.708Z,101950.00
2018-10-05T09:29:51.195Z,101944.00
2018-10-05T09:32:20.349Z,101939.00
2018-10-05T09:34:49.150Z,101944.00
2018-10-05T09:37:17.975Z,101953.00
2018-10-05T09:39:47.038Z,101949.00
2018-10-05T09:42:15.875Z,101952.00
2018-10-05T09:44:44.743Z,101927.00
2018-10-05T09:47:13.606Z,101929.00
2018-10-05T09:49:42.398Z,101930.00
2018-10-05T09:52:11.246Z,101933.00
2018-10-05T09:54:40.044Z,101930.00
2018-10-05T09:57:08.874Z,101929.00
2018-10-05T09:59:37.714Z,101922.00
2018-10-05T10:02:12.042Z,101924.00
2018-10-05T10:04:40.862Z,101926.00
2018-10-05T10:07:10.051Z,101919.00
2018-10-05T10:09:38.882Z,101916.00
2018-10-05T10:12:07.724Z,101918.00
2018-10-05T10:14:36.558Z,101919.00
2018-10-05T10:17:05.435Z,101908.00
2018-10-05T10:19:34.343Z,101897.00
2018-10-05T10:22:03.192Z,101897.00
2018-10-05T10:24:32.250Z,101891.00
2018-10-05T10:27:01.094Z,101882.00
2018-10-05T10:29:30.002Z,101880.00
2018-10-05T10:31:58.781Z,101874.00
2018-10-05T10:34:27.725Z,101870.00
2018-10-05T10:36:56.574Z,101873.00
2018-10-05T10:39:25.379Z,101858.00
2018-10-05T10:41:54.254Z,101875.00
2018-10-05T10:44:23.126Z,101857.00
2018-10-05T10:46:52.214Z,101861.00
2018-10-05T10:49:21.042Z,101863.00
2018-10-05T10:51:49.931Z,101847.00
2018-10-05T10:54:18.816Z,101850.00
2018-10-05T10:56:47.654Z,101846.00
2018-10-05T10:59:16.459Z,101842.00
2018-10-05T11:01:45.291Z,101845.00
2018-10-05T11:04:14.172Z,101837.00
2018-10-05T11:06:42.961Z,101832.00
2018-10-05T11:09:12.454Z,101840.00
2018-10-05T11:11:41.277Z,101828.00
2018-10-05T11:14:10.088Z,101829.00
2018-10-05T11:16:39.146Z,101821.00
2018-10-05T11:19:08.778Z,101822.00
2018-10-05T11:21:37.878Z,101820.00
2018-10-05T11:24:08.167Z,101823.00
2018-10-05T11:26:37.046Z,101816.00
2018-10-05T11:29:05.841Z,101812.00
2018-10-05T11:31:34.777Z,101805.00
2018-10-05T11:34:03.599Z,101792.00
2018-10-05T11:36:32.409Z,101801.00
2018-10-05T11:39:01.259Z,101792.00
2018-10-05T11:41:30.099Z,101793.00
2018-10-05T11:43:58.936Z,101783.00
2018-10-05T11:46:27.785Z,101782.00
2018-10-05T11:48:56.555Z,101777.00
2018-10-05T11:51:25.482Z,101775.00
2018-10-05T11:53:54.626Z,101766.00
2018-10-05T11:56:23.422Z,101757.00
2018-10-05T11:58:52.223Z,101763.00
2018-10-05T12:01:21.624Z,101747.00
2018-10-05T12:03:50.530Z,101757.00
2018-10-05T12:06:19.424Z,101739.00
2018-10-05T12:08:48.271Z,101745.00
2018-10-05T12:11:17.619Z,101728.00
2018-10-05T12:13:46.445Z,101725.00
2018-10-05T12:16:15.561Z,101725.00
2018-10-05T12:18:44.433Z,101727.00
2018-10-05T12:21:13.265Z,101730.00
2018-10-05T12:23:42.960Z,101714.00
2018-10-05T12:26:11.770Z,101709.00
2018-10-05T12:28:40.567Z,101715.00
2018-10-05T12:31:09.405Z,101719.00
2018-10-05T12:33:38.335Z,101719.00
2018-10-05T12:36:07.227Z,101714.00
2018-10-05T12:38:36.594Z,101711.00
2018-10-05T12:41:05.422Z,101712.00
2018-10-05T12:43:34.256Z,101715.00
2018-10-05T12:46:03.094Z,101708.00
2018-10-05T12:48:31.905Z,101716.00
2018-10-05T12:51:00.806Z,101696.00
2018-10-05T12:53:29.623Z,101694.00
2018-10-05T12:55:58.524Z,101697.00
2018-10-05T12:58:27.415Z,101687.00
2018-10-05T13:00:56.420Z,101697.00
2018-10-05T13:03:25.400Z,101695.00
2018-10-05T13:05:54.251Z,101682.00
2018-10-05T13:08:23.134Z,101687.00
2018-10-05T13:10:51.993Z,101681.00
2018-10-05T13:13:21.273Z,101682.00
2018-10-05T13:15:50.143Z,101671.00
2018-10-05T13:18:18.959Z,101679.00
2018-10-05T13:20:47.780Z,101666.00
2018-10-05T13:23:16.774Z,101669.00
2018-10-05T13:25:45.647Z,101673.00
2018-10-05T13:28:14.499Z,101663.00
2018-10-05T13:30:43.351Z,101672.00
2018-10-05T13:33:12.170Z,101663.00
2018-10-05T13:35:41.004Z,101662.00
2018-10-05T13:38:09.856Z,101662.00
2018-10-05T13:40:38.786Z,101652.00
2018-10-05T13:43:08.082Z,101654.00
2018-10-05T13:45:37.279Z,101662.00
2018-10-05T13:48:06.370Z,101658.00
2018-10-05T13:50:35.196Z,101658.00
2018-10-05T13:53:04.044Z,101647.00
2018-10-05T13:55:32.918Z,101637.00
2018-10-05T13:58:01.727Z,101634.00
2018-10-05T14:00:30.680Z,101628.00
2018-10-05T14:02:59.542Z,101630.00
2018-10-05T14:05:28.410Z,101627.00
2018-10-05T14:07:57.616Z,101617.00
2018-10-05T14:10:26.490Z,101617.00
2018-10-05T14:12:55.329Z,101625.00
2018-10-05T14:15:24.667Z,101615.00
2018-10-05T14:17:53.465Z,101622.00
2018-10-05T14:20:22.389Z,101618.00
2018-10-05T14:22:51.368Z,101602.00
2018-10-05T14:25:20.276Z,101603.00
2018-10-05T14:27:49.070Z,101612.00
2018-10-05T14:30:18.342Z,101603.00
2018-10-05T14:32:49.305Z,101592.00
2018-10-05T14:35:18.281Z,101595.00
2018-10-05T14:37:47.429Z,101580.00
2018-10-05T14:40:16.265Z,101592.00
2018-10-05T14:42:45.202Z,101593.00
2018-10-05T14:45:14.031Z,101585.00
2018-10-05T14:47:42.871Z,101587.00
2018-10-05T14:50:11.793Z,101577.00
2018-10-05T14:52:41.101Z,101579.00
2018-10-05T14:55:09.955Z,101562.00
2018-10-05T14:57:38.802Z,101575.00
2018-10-05T15:00:08.781Z,101569.00
2018-10-05T15:02:37.646Z,101564.00
2018-10-05T15:05:08.425Z,101555.00
2018-10-05T15:07:37.324Z,101559.00
2018-10-05T15:10:06.193Z,101559.00
2018-10-05T15:12:35.099Z,101557.00
2018-10-05T15:15:04.425Z,101554.00
2018-10-05T15:17:33.748Z,101545.00
2018-10-05T15:20:02.566Z,101537.00
2018-10-05T15:22:31.432Z,101537.00
2018-10-05T15:25:00.295Z,101549.00
2018-10-05T15:27:29.121Z,101540.00
2018-10-05T15:29:58.023Z,101539.00
2018-10-05T15:32:26.842Z,101530.00
2018-10-05T15:34:55.705Z,101536.00
2018-10-05T15:37:24.979Z,101535.00
2018-10-05T15:39:53.819Z,101520.00
2018-10-05T15:42:22.670Z,101515.00
2018-10-05T15:44:51.503Z,101521.00
2018-10-05T15:47:20.318Z,101517.00
2018-10-05T15:49:49.217Z,101521.00
2018-10-05T15:52:18.068Z,101519.00
2018-10-05T15:54:46.883Z,101521.00
2018-10-05T15:57:15.762Z,101526.00
2018-10-05T15:59:45.055Z,101515.00
2018-10-05T16:02:13.950Z,101518.00
2018-10-05T16:04:42.777Z,101514.00
2018-10-05T16:07:11.631Z,101515.00
2018-10-05T16:09:40.449Z,101511.00
2018-10-05T16:12:09.279Z,101515.00
2018-10-05T16:14:38.150Z,101516.00
2018-10-05T16:17:07.002Z,101514.00
2018-10-05T16:19:36.150Z,101520.00
2018-10-05T16:22:05.123Z,101513.00
2018-10-05T16:24:42.931Z,101512.00
2018-10-05T16:27:12.425Z,101517.00
2018-10-05T16:29:41.243Z,101506.00
2018-10-05T16:32:11.236Z,101506.00
2018-10-05T16:34:40.106Z,101505.00
2018-10-05T16:37:08.931Z,101501.00
2018-10-05T16:39:37.730Z,101498.00
2018-10-05T16:42:06.761Z,101500.00
2018-10-05T16:44:35.593Z,101506.00
2018-10-05T16:47:04.424Z,101495.00
2018-10-05T16:49:33.303Z,101489.00
2018-10-05T16:52:02.317Z,101492.00
2018-10-05T16:54:31.132Z,101487.00
2018-10-05T16:57:00.006Z,101492.00
2018-10-05T16:59:28.826Z,101491.00
2018-10-05T17:01:57.779Z,101482.00
2018-10-05T17:04:26.892Z,101496.00
2018-10-05T17:06:55.722Z,101489.00
2018-10-05T17:09:24.546Z,101489.00
2018-10-05T17:11:53.529Z,101485.00
2018-10-05T17:14:22.382Z,101482.00
2018-10-05T17:16:51.210Z,101479.00
2018-10-05T17:19:20.081Z,101483.00
2018-10-05T17:21:49.548Z,101479.00
2018-10-05T17:24:18.476Z,101473.00
2018-10-05T17:26:47.409Z,101473.00
2018-10-05T17:29:16.260Z,101463.00
2018-10-05T17:31:45.098Z,101466.00
2018-10-05T17:34:13.944Z,101468.00
2018-10-05T17:36:42.782Z,101471.00
2018-10-05T17:39:11.874Z,101466.00
2018-10-05T17:41:40.757Z,101459.00
2018-10-05T17:44:09.578Z,101458.00
2018-10-05T17:46:38.374Z,101458.00
2018-10-05T17:49:07.744Z,101447.00
2018-10-05T17:51:36.566Z,101441.00
2018-10-05T17:54:05.423Z,101445.00
2018-10-05T17:56:34.287Z,101438.00
2018-10-05T17:59:03.131Z,101432.00
2018-10-05T18:01:31.945Z,101437.00
2018-10-05T18:04:00.838Z,101436.00
2018-10-05T18:06:29.690Z,101437.00
2018-10-05T18:08:58.545Z,101433.00
2018-10-05T18:11:27.733Z,101431.00
2018-10-05T18:13:56.528Z,101434.00
2018-10-05T18:16:25.347Z,101430.00
2018-10-05T18:18:54.175Z,101419.00
2018-10-05T18:21:23.047Z,101417.00
2018-10-05T18:23:52.130Z,101426.00
2018-10-05T18:26:20.994Z,101423.00
2018-10-05T18:28:49.834Z,101422.00
2018-10-05T18:31:18.673Z,101427.00
2018-10-05T18:33:47.577Z,101419.00
2018-10-05T18:36:16.373Z,101420.00
2018-10-05T18:38:45.215Z,101415.00
2018-10-05T18:41:14.102Z,101419.00
2018-10-05T18:43:42.933Z,101408.00
2018-10-05T18:46:12.036Z,101408.00
2018-10-05T18:48:41.036Z,101421.00
2018-10-05T18:51:09.933Z,101410.00
2018-10-05T18:53:38.720Z,101410.00
2018-10-05T18:56:24.957Z,101405.00
2018-10-05T18:58:53.803Z,101401.00
2018-10-05T19:01:22.644Z,101403.00
2018-10-05T19:03:51.677Z,101395.00
2018-10-05T19:06:20.538Z,101393.00
2018-10-05T19:08:49.353Z,101403.00
2018-10-05T19:11:18.219Z,101397.00
2018-10-05T19:13:47.149Z,101394.00
2018-10-05T19:16:16.024Z,101393.00
2018-10-05T19:18:44.808Z,101384.00
2018-10-05T19:21:13.641Z,101383.00
2018-10-05T19:23:42.465Z,101387.00
2018-10-05T19:26:14.978Z,101388.00
2018-10-05T19:28:43.831Z,101385.00
2018-10-05T19:31:12.659Z,101381.00
2018-10-05T19:33:41.487Z,101382.00
2018-10-05T19:36:10.381Z,101373.00
2018-10-05T19:38:39.165Z,101371.00
2018-10-05T19:41:07.999Z,101368.00
2018-10-05T19:43:36.828Z,101361.00
2018-10-05T19:46:05.720Z,101363.00
2018-10-05T19:48:34.672Z,101358.00
2018-10-05T19:51:03.511Z,101363.00
2018-10-05T19:53:32.396Z,101361.00
2018-10-05T19:56:01.191Z,101358.00
2018-10-05T19:58:30.145Z,101349.00
2018-10-05T20:00:58.996Z,101349.00
2018-10-05T20:03:27.842Z,101351.00
2018-10-05T20:05:56.638Z,101344.00
2018-10-05T20:08:25.527Z,101335.00
2018-10-05T20:10:54.669Z,101330.00
2018-10-05T20:13:23.544Z,101327.00
2018-10-05T20:15:52.366Z,101319.00
2018-10-05T20:18:21.298Z,101329.00
2018-10-05T20:20:50.070Z,101317.00
2018-10-05T20:23:18.873Z,101325.00
2018-10-05T20:25:47.765Z,101326.00
2018-10-05T20:28:17.048Z,101326.00
2018-10-05T20:30:45.905Z,101318.00
2018-10-05T20:33:14.735Z,101322.00
2018-10-05T20:35:43.545Z,101310.00
2018-10-05T20:38:12.384Z,101315.00
2018-10-05T20:40:41.231Z,101307.00
2018-10-05T20:43:10.066Z,101319.00
2018-10-05T20:45:38.882Z,101312.00
2018-10-05T20:48:08.072Z,101306.00
2018-10-05T20:50:36.879Z,101300.00
2018-10-05T20:53:05.791Z,101295.00
2018-10-05T20:55:35.665Z,101307.00
2018-10-05T20:58:04.479Z,101287.00
2018-10-05T21:00:33.341Z,101304.00
2018-10-05T21:03:02.224Z,101295.00
2018-10-05T21:05:31.043Z,101294.00
2018-10-05T21:07:59.926Z,101279.00
2018-10-05T21:10:28.913Z,101286.00
2018-10-05T21:13:00.751Z,101292.00
2018-10-05T21:15:29.674Z,101284.00
2018-10-05T21:17:58.493Z,101284.00
2018-10-05T21:20:27.316Z,101285.00
2018-10-05T21:22:56.134Z,101278.00
2018-10-05T21:25:25.001Z,101283.00
2018-10-05T21:27:53.872Z,101267.00
2018-10-05T21:30:23.146Z,101276.00
2018-10-05T21:32:52.127Z,101274.00
2018-10-05T21:35:20.879Z,101270.00
2018-10-05T21:37:49.794Z,101266.00
2018-10-05T21:40:18.725Z,101268.00
2018-10-05T21:42:47.690Z,101268.00
2018-10-05T21:45:16.538Z,101256.00
2018-10-05T21:47:45.559Z,101255.00
2018-10-05T21:50:14.392Z,101252.00
2018-10-05T21:52:43.205Z,101241.00
2018-10-05T21:55:12.091Z,101247.00
2018-10-05T21:57:40.921Z,101247.00
2018-10-05T22:00:09.774Z,101243.00
2018-10-05T22:02:38.641Z,101246.00
2018-10-05T22:05:08.640Z,101237.00
2018-10-05T22:07:37.475Z,101241.00
2018-10-05T22:10:06.651Z,101229.00
2018-10-05T22:12:35.410Z,101229.00
2018-10-05T22:15:04.240Z,101224.00
2018-10-05T22:17:33.129Z,101228.00
2018-10-05T22:20:01.990Z,101219.00
2018-10-05T22:22:30.770Z,101202.00
2018-10-05T22:24:59.580Z,101204.00
2018-10-05T22:27:28.393Z,101201.00
2018-10-05T22:29:57.263Z,101208.00
2018-10-05T22:32:27.219Z,101213.00
2018-10-05T22:34:56.092Z,101207.00
2018-10-05T22:37:27.936Z,101204.00
2018-10-05T22:39:56.733Z,101207.00
2018-10-05T22:42:25.591Z,101202.00
2018-10-05T22:44:55.236Z,101211.00
2018-10-05T22:47:24.025Z,101207.00
2018-10-05T22:49:53.390Z,101206.00
2018-10-05T22:52:23.520Z,101199.00
2018-10-05T22:54:52.321Z,101195.00
2018-10-05T22:57:21.159Z,101206.00
2018-10-05T22:59:49.957Z,101201.00
2018-10-05T23:02:18.872Z,101188.00
2018-10-05T23:04:47.696Z,101204.00
2018-10-05T23:07:16.502Z,101196.00
2018-10-05T23:09:45.380Z,101192.00
2018-10-05T23:12:14.210Z,101190.00
2018-10-05T23:14:43.134Z,101189.00
2018-10-05T23:17:11.988Z,101193.00
2018-10-05T23:19:40.831Z,101185.00
2018-10-05T23:22:09.659Z,101196.00
2018-10-05T23:24:38.619Z,101179.00
2018-10-05T23:27:07.532Z,101178.00
2018-10-05T23:29:36.385Z,101173.00
2018-10-05T23:32:05.202Z,101174.00
2018-10-05T23:34:34.386Z,101169.00
2018-10-05T23:37:03.832Z,101169.00
2018-10-05T23:39:32.882Z,101176.00
2018-10-05T23:42:02.055Z,101178.00
2018-10-05T23:44:31.119Z,101169.00
2018-10-05T23:47:00.067Z,101169.00
2018-10-05T23:49:28.902Z,101167.00
2018-10-05T23:51:59.651Z,101174.00
2018-10-05T23:54:28.495Z,101168.00
2018-10-05T23:56:57.312Z,101164.00
2018-10-05T23:59:26.446Z,101160.00
